sensor_id;sensor_type;location;lat;lon;timestamp;pressure;altitude;pressure_sealevel;temperature;humidity
46223;BME280;31943;51.410;7.564;2022-11-20T00:01:04;99919.72;;;1.97;57.72
46223;BME280;31943;51.410;7.564;2022-11-20T00:03:30;99921.50;;;1.98;57.77
46223;BME280;31943;51.410;7.564;2022-11-20T00:06:00;99917.22;;;1.99;57.65
46223;BME280;31943;51.410;7.564;2022-11-20T00:08:28;99916.41;;;2.00;57.73
46223;BME280;31943;51.410;7.564;2022-11-20T00:10:53;99909.56;;;2.01;57.88
46223;BME280;31943;51.410;7.564;2022-11-20T00:13:19;99917.34;;;2.02;58.16
46223;BME280;31943;51.410;7.564;2022-11-20T00:15:44;99919.94;;;2.04;58.23
46223;BME280;31943;51.410;7.564;2022-11-20T00:18:10;99911.50;;;2.06;58.08
46223;BME280;31943;51.410;7.564;2022-11-20T00:20:36;99920.97;;;2.07;58.30
46223;BME280;31943;51.410;7.564;2022-11-20T00:23:03;99921.16;;;2.12;58.44
46223;BME280;31943;51.410;7.564;2022-11-20T00:25:28;99919.56;;;2.15;58.26
46223;BME280;31943;51.410;7.564;2022-11-20T00:27:54;99918.09;;;2.00;58.23
46223;BME280;31943;51.410;7.564;2022-11-20T00:30:20;99920.13;;;1.86;58.33
46223;BME280;31943;51.410;7.564;2022-11-20T00:32:45;99925.34;;;1.87;59.13
46223;BME280;31943;51.410;7.564;2022-11-20T00:35:11;99916.97;;;1.93;58.99
46223;BME280;31943;51.410;7.564;2022-11-20T00:37:36;99924.63;;;1.91;59.07
46223;BME280;31943;51.410;7.564;2022-11-20T00:40:05;99922.22;;;1.96;58.92
46223;BME280;31943;51.410;7.564;2022-11-20T00:42:31;99921.56;;;2.00;58.82
46223;BME280;31943;51.410;7.564;2022-11-20T00:44:57;99916.16;;;1.94;58.91
46223;BME280;31943;51.410;7.564;2022-11-20T00:47:22;99930.53;;;1.89;59.13
46223;BME280;31943;51.410;7.564;2022-11-20T00:49:48;99919.06;;;1.81;59.00
46223;BME280;31943;51.410;7.564;2022-11-20T00:52:14;99925.53;;;1.71;59.00
46223;BME280;31943;51.410;7.564;2022-11-20T00:54:39;99921.03;;;1.65;59.00
46223;BME280;31943;51.410;7.564;2022-11-20T00:57:07;99922.22;;;1.52;59.58
46223;BME280;31943;51.410;7.564;2022-11-20T00:59:33;99919.78;;;1.55;59.55
46223;BME280;31943;51.410;7.564;2022-11-20T01:01:58;99919.09;;;1.60;59.72
46223;BME280;31943;51.410;7.564;2022-11-20T01:04:24;99920.34;;;1.69;59.76
46223;BME280;31943;51.410;7.564;2022-11-20T01:06:49;99919.81;;;1.78;59.88
46223;BME280;31943;51.410;7.564;2022-11-20T01:09:15;99925.84;;;1.78;59.92
46223;BME280;31943;51.410;7.564;2022-11-20T01:11:43;99925.34;;;1.87;60.19
46223;BME280;31943;51.410;7.564;2022-11-20T01:14:12;99915.97;;;1.89;59.83
46223;BME280;31943;51.410;7.564;2022-11-20T01:16:39;99915.50;;;1.77;59.81
46223;BME280;31943;51.410;7.564;2022-11-20T01:19:07;99912.94;;;1.77;60.06
46223;BME280;31943;51.410;7.564;2022-11-20T01:21:35;99909.09;;;1.88;60.21
46223;BME280;31943;51.410;7.564;2022-11-20T01:24:01;99905.28;;;2.01;60.24
46223;BME280;31943;51.410;7.564;2022-11-20T01:26:29;99908.28;;;2.12;60.55
46223;BME280;31943;51.410;7.564;2022-11-20T01:28:55;99904.31;;;2.20;60.07
46223;BME280;31943;51.410;7.564;2022-11-20T01:31:24;99901.72;;;2.20;59.97
46223;BME280;31943;51.410;7.564;2022-11-20T01:33:51;99902.75;;;2.25;59.95
46223;BME280;31943;51.410;7.564;2022-11-20T01:36:19;99902.31;;;2.13;59.64
46223;BME280;31943;51.410;7.564;2022-11-20T01:38:46;99900.91;;;1.98;59.78
46223;BME280;31943;51.410;7.564;2022-11-20T01:41:14;99909.91;;;1.87;59.59
46223;BME280;31943;51.410;7.564;2022-11-20T01:43:39;99911.06;;;1.73;60.00
46223;BME280;31943;51.410;7.564;2022-11-20T01:46:13;99905.28;;;1.57;60.30
46223;BME280;31943;51.410;7.564;2022-11-20T01:48:46;99898.19;;;1.52;60.12
46223;BME280;31943;51.410;7.564;2022-11-20T01:51:21;99897.75;;;1.41;60.66
46223;BME280;31943;51.410;7.564;2022-11-20T01:53:50;99888.47;;;1.45;60.88
46223;BME280;31943;51.410;7.564;2022-11-20T01:56:17;99888.91;;;1.55;60.72
46223;BME280;31943;51.410;7.564;2022-11-20T01:58:50;99881.59;;;1.65;60.98
46223;BME280;31943;51.410;7.564;2022-11-20T02:01:17;99883.75;;;1.76;60.95
46223;BME280;31943;51.410;7.564;2022-11-20T02:03:44;99875.56;;;1.87;61.03
46223;BME280;31943;51.410;7.564;2022-11-20T02:06:14;99874.81;;;1.89;60.70
46223;BME280;31943;51.410;7.564;2022-11-20T02:08:42;99869.13;;;1.75;60.79
46223;BME280;31943;51.410;7.564;2022-11-20T02:11:08;99870.06;;;1.77;60.95
46223;BME280;31943;51.410;7.564;2022-11-20T02:13:34;99867.09;;;1.89;61.21
46223;BME280;31943;51.410;7.564;2022-11-20T02:16:00;99865.38;;;1.90;60.97
46223;BME280;31943;51.410;7.564;2022-11-20T02:18:26;99868.78;;;1.89;61.16
46223;BME280;31943;51.410;7.564;2022-11-20T02:20:56;99867.50;;;2.00;61.28
46223;BME280;31943;51.410;7.564;2022-11-20T02:23:29;99868.84;;;2.13;61.35
46223;BME280;31943;51.410;7.564;2022-11-20T02:26:00;99863.84;;;2.17;61.22
46223;BME280;31943;51.410;7.564;2022-11-20T02:28:27;99864.47;;;2.10;61.08
46223;BME280;31943;51.410;7.564;2022-11-20T02:30:53;99884.13;;;2.08;61.01
46223;BME280;31943;51.410;7.564;2022-11-20T02:33:19;99880.72;;;2.09;61.17
46223;BME280;31943;51.410;7.564;2022-11-20T02:35:46;99875.28;;;2.02;60.60
46223;BME280;31943;51.410;7.564;2022-11-20T02:38:13;99870.94;;;1.78;60.95
46223;BME280;31943;51.410;7.564;2022-11-20T02:40:39;99859.72;;;1.76;61.38
46223;BME280;31943;51.410;7.564;2022-11-20T02:43:06;99868.34;;;1.78;61.50
46223;BME280;31943;51.410;7.564;2022-11-20T02:45:32;99859.00;;;1.80;61.81
46223;BME280;31943;51.410;7.564;2022-11-20T02:47:59;99861.84;;;1.86;61.58
46223;BME280;31943;51.410;7.564;2022-11-20T02:50:25;99861.31;;;1.95;61.77
46223;BME280;31943;51.410;7.564;2022-11-20T02:52:50;99853.34;;;2.11;61.75
46223;BME280;31943;51.410;7.564;2022-11-20T02:55:17;99855.44;;;2.22;61.76
46223;BME280;31943;51.410;7.564;2022-11-20T02:57:43;99855.03;;;2.33;61.50
46223;BME280;31943;51.410;7.564;2022-11-20T03:00:12;99856.13;;;2.40;61.39
46223;BME280;31943;51.410;7.564;2022-11-20T03:02:38;99853.38;;;2.35;61.09
46223;BME280;31943;51.410;7.564;2022-11-20T03:05:04;99847.81;;;2.25;61.31
46223;BME280;31943;51.410;7.564;2022-11-20T03:07:30;99841.91;;;2.27;61.62
46223;BME280;31943;51.410;7.564;2022-11-20T03:09:56;99839.56;;;2.33;61.24
46223;BME280;31943;51.410;7.564;2022-11-20T03:12:21;99841.22;;;2.31;61.15
46223;BME280;31943;51.410;7.564;2022-11-20T03:14:47;99845.81;;;2.40;61.23
46223;BME280;31943;51.410;7.564;2022-11-20T03:17:14;99841.44;;;2.37;61.03
46223;BME280;31943;51.410;7.564;2022-11-20T03:19:41;99837.66;;;2.28;61.16
46223;BME280;31943;51.410;7.564;2022-11-20T03:22:06;99845.19;;;2.23;61.12
46223;BME280;31943;51.410;7.564;2022-11-20T03:24:32;99846.91;;;2.23;61.56
46223;BME280;31943;51.410;7.564;2022-11-20T03:26:58;99843.44;;;2.22;61.64
46223;BME280;31943;51.410;7.564;2022-11-20T03:29:23;99835.53;;;2.17;61.73
46223;BME280;31943;51.410;7.564;2022-11-20T03:31:49;99835.78;;;2.24;61.58
46223;BME280;31943;51.410;7.564;2022-11-20T03:34:16;99825.81;;;2.33;61.76
46223;BME280;31943;51.410;7.564;2022-11-20T03:36:42;99822.47;;;2.35;61.79
46223;BME280;31943;51.410;7.564;2022-11-20T03:39:08;99819.94;;;2.37;61.82
46223;BME280;31943;51.410;7.564;2022-11-20T03:41:36;99814.97;;;2.42;61.95
46223;BME280;31943;51.410;7.564;2022-11-20T03:44:04;99819.63;;;2.52;62.11
46223;BME280;31943;51.410;7.564;2022-11-20T03:46:29;99818.19;;;2.60;61.93
46223;BME280;31943;51.410;7.564;2022-11-20T03:48:56;99813.31;;;2.68;62.05
46223;BME280;31943;51.410;7.564;2022-11-20T03:51:24;99802.59;;;2.81;62.16
46223;BME280;31943;51.410;7.564;2022-11-20T03:53:52;99808.88;;;2.89;62.00
46223;BME280;31943;51.410;7.564;2022-11-20T03:56:19;99800.47;;;2.95;61.95
46223;BME280;31943;51.410;7.564;2022-11-20T03:58:46;99803.31;;;3.03;62.08
46223;BME280;31943;51.410;7.564;2022-11-20T04:01:15;99806.94;;;3.08;61.93
46223;BME280;31943;51.410;7.564;2022-11-20T04:03:42;99809.59;;;3.11;61.85
46223;BME280;31943;51.410;7.564;2022-11-20T04:06:11;99808.78;;;3.12;61.79
46223;BME280;31943;51.410;7.564;2022-11-20T04:08:41;99806.03;;;3.07;61.57
46223;BME280;31943;51.410;7.564;2022-11-20T04:11:11;99802.44;;;3.02;61.62
46223;BME280;31943;51.410;7.564;2022-11-20T04:13:37;99794.47;;;2.94;61.65
46223;BME280;31943;51.410;7.564;2022-11-20T04:16:03;99801.63;;;2.77;61.57
46223;BME280;31943;51.410;7.564;2022-11-20T04:18:29;99807.00;;;2.60;61.61
46223;BME280;31943;51.410;7.564;2022-11-20T04:20:56;99811.63;;;2.44;61.88
46223;BME280;31943;51.410;7.564;2022-11-20T04:23:22;99803.47;;;2.32;62.08
46223;BME280;31943;51.410;7.564;2022-11-20T04:25:49;99809.91;;;2.21;62.40
46223;BME280;31943;51.410;7.564;2022-11-20T04:28:15;99813.22;;;2.16;62.38
46223;BME280;31943;51.410;7.564;2022-11-20T04:30:42;99810.75;;;2.20;62.67
46223;BME280;31943;51.410;7.564;2022-11-20T04:33:07;99796.28;;;2.23;62.65
46223;BME280;31943;51.410;7.564;2022-11-20T04:35:34;99802.69;;;2.34;62.64
46223;BME280;31943;51.410;7.564;2022-11-20T04:38:01;99809.97;;;2.46;62.84
46223;BME280;31943;51.410;7.564;2022-11-20T04:40:27;99807.78;;;2.57;62.58
46223;BME280;31943;51.410;7.564;2022-11-20T04:42:55;99804.66;;;2.66;62.67
46223;BME280;31943;51.410;7.564;2022-11-20T04:45:22;99798.91;;;2.73;62.14
46223;BME280;31943;51.410;7.564;2022-11-20T04:47:48;99800.44;;;2.68;61.92
46223;BME280;31943;51.410;7.564;2022-11-20T04:50:13;99806.22;;;2.62;62.26
46223;BME280;31943;51.410;7.564;2022-11-20T04:52:39;99805.50;;;2.65;62.19
46223;BME280;31943;51.410;7.564;2022-11-20T04:55:06;99804.56;;;2.63;62.13
46223;BME280;31943;51.410;7.564;2022-11-20T04:57:32;99801.28;;;2.68;62.33
46223;BME280;31943;51.410;7.564;2022-11-20T04:59:59;99807.63;;;2.78;62.32
46223;BME280;31943;51.410;7.564;2022-11-20T05:02:25;99806.09;;;2.83;62.24
46223;BME280;31943;51.410;7.564;2022-11-20T05:04:51;99802.81;;;2.87;62.27
46223;BME280;31943;51.410;7.564;2022-11-20T05:07:16;99800.59;;;2.98;62.22
46223;BME280;31943;51.410;7.564;2022-11-20T05:09:42;99804.19;;;3.03;62.21
46223;BME280;31943;51.410;7.564;2022-11-20T05:12:07;99802.44;;;3.02;62.21
46223;BME280;31943;51.410;7.564;2022-11-20T05:14:35;99813.63;;;3.03;62.37
46223;BME280;31943;51.410;7.564;2022-11-20T05:17:02;99819.00;;;3.09;62.55
46223;BME280;31943;51.410;7.564;2022-11-20T05:19:28;99812.38;;;3.17;62.16
46223;BME280;31943;51.410;7.564;2022-11-20T05:21:53;99811.56;;;3.18;62.37
46223;BME280;31943;51.410;7.564;2022-11-20T05:24:20;99811.69;;;3.23;61.74
46223;BME280;31943;51.410;7.564;2022-11-20T05:26:46;99811.38;;;3.13;61.90
46223;BME280;31943;51.410;7.564;2022-11-20T05:29:12;99806.28;;;3.15;62.13
46223;BME280;31943;51.410;7.564;2022-11-20T05:31:39;99806.22;;;3.12;61.98
46223;BME280;31943;51.410;7.564;2022-11-20T05:34:07;99802.06;;;3.17;62.23
46223;BME280;31943;51.410;7.564;2022-11-20T05:36:33;99803.16;;;3.24;62.13
46223;BME280;31943;51.410;7.564;2022-11-20T05:38:59;99802.50;;;3.31;62.17
46223;BME280;31943;51.410;7.564;2022-11-20T05:41:25;99797.50;;;3.35;62.13
46223;BME280;31943;51.410;7.564;2022-11-20T05:43:50;99800.97;;;3.36;61.88
46223;BME280;31943;51.410;7.564;2022-11-20T05:46:18;99801.97;;;3.14;61.83
46223;BME280;31943;51.410;7.564;2022-11-20T05:48:45;99791.28;;;3.03;62.18
46223;BME280;31943;51.410;7.564;2022-11-20T05:51:15;99789.56;;;3.02;62.16
46223;BME280;31943;51.410;7.564;2022-11-20T05:53:41;99797.38;;;2.80;62.27
46223;BME280;31943;51.410;7.564;2022-11-20T05:56:10;99794.41;;;2.67;62.65
46223;BME280;31943;51.410;7.564;2022-11-20T05:58:37;99793.34;;;2.62;62.49
46223;BME280;31943;51.410;7.564;2022-11-20T06:01:07;99792.59;;;2.65;62.99
46223;BME280;31943;51.410;7.564;2022-11-20T06:03:34;99800.53;;;2.71;62.82
46223;BME280;31943;51.410;7.564;2022-11-20T06:06:00;99796.25;;;2.71;62.91
46223;BME280;31943;51.410;7.564;2022-11-20T06:08:27;99799.91;;;2.78;62.99
46223;BME280;31943;51.410;7.564;2022-11-20T06:10:53;99803.06;;;2.69;62.89
46223;BME280;31943;51.410;7.564;2022-11-20T06:13:19;99796.31;;;2.73;63.02
46223;BME280;31943;51.410;7.564;2022-11-20T06:15:48;99797.44;;;2.81;63.25
46223;BME280;31943;51.410;7.564;2022-11-20T06:18:14;99803.78;;;2.91;62.99
46223;BME280;31943;51.410;7.564;2022-11-20T06:20:40;99794.28;;;2.90;62.78
46223;BME280;31943;51.410;7.564;2022-11-20T06:23:05;99797.72;;;2.89;63.09
46223;BME280;31943;51.410;7.564;2022-11-20T06:25:33;99798.69;;;2.92;62.93
46223;BME280;31943;51.410;7.564;2022-11-20T06:27:58;99798.97;;;3.02;62.91
46223;BME280;31943;51.410;7.564;2022-11-20T06:30:24;99801.00;;;3.10;62.95
46223;BME280;31943;51.410;7.564;2022-11-20T06:32:50;99806.28;;;3.15;62.83
46223;BME280;31943;51.410;7.564;2022-11-20T06:35:15;99804.63;;;3.17;63.02
46223;BME280;31943;51.410;7.564;2022-11-20T06:37:42;99800.28;;;3.14;62.61
46223;BME280;31943;51.410;7.564;2022-11-20T06:40:09;99795.84;;;3.10;62.75
46223;BME280;31943;51.410;7.564;2022-11-20T06:42:38;99804.59;;;3.15;62.87
46223;BME280;31943;51.410;7.564;2022-11-20T06:45:04;99805.56;;;3.19;62.71
46223;BME280;31943;51.410;7.564;2022-11-20T06:47:30;99801.44;;;3.24;62.59
46223;BME280;31943;51.410;7.564;2022-11-20T06:49:55;99808.44;;;3.28;62.30
46223;BME280;31943;51.410;7.564;2022-11-20T06:52:22;99809.25;;;3.27;62.36
46223;BME280;31943;51.410;7.564;2022-11-20T06:54:48;99809.25;;;3.27;62.23
46223;BME280;31943;51.410;7.564;2022-11-20T06:57:14;99807.59;;;3.28;62.22
46223;BME280;31943;51.410;7.564;2022-11-20T06:59:41;99808.38;;;3.27;62.00
46223;BME280;31943;51.410;7.564;2022-11-20T07:02:09;99805.88;;;3.28;61.97
46223;BME280;31943;51.410;7.564;2022-11-20T07:04:35;99808.50;;;3.30;61.85
46223;BME280;31943;51.410;7.564;2022-11-20T07:07:00;99810.22;;;3.29;61.87
46223;BME280;31943;51.410;7.564;2022-11-20T07:09:26;99816.19;;;3.28;61.95
46223;BME280;31943;51.410;7.564;2022-11-20T07:11:51;99812.78;;;3.29;61.54
46223;BME280;31943;51.410;7.564;2022-11-20T07:14:17;99813.50;;;3.25;61.73
46223;BME280;31943;51.410;7.564;2022-11-20T07:16:44;99806.66;;;3.26;61.52
46223;BME280;31943;51.410;7.564;2022-11-20T07:19:10;99811.81;;;3.26;61.69
46223;BME280;31943;51.410;7.564;2022-11-20T07:21:35;99823.81;;;3.25;61.58
46223;BME280;31943;51.410;7.564;2022-11-20T07:24:01;99828.16;;;3.26;61.51
46223;BME280;31943;51.410;7.564;2022-11-20T07:26:27;99825.38;;;3.20;61.28
46223;BME280;31943;51.410;7.564;2022-11-20T07:28:52;99832.25;;;3.20;61.46
46223;BME280;31943;51.410;7.564;2022-11-20T07:31:18;99836.63;;;3.22;61.28
46223;BME280;31943;51.410;7.564;2022-11-20T07:33:45;99836.69;;;3.24;61.48
46223;BME280;31943;51.410;7.564;2022-11-20T07:36:10;99828.97;;;3.25;61.63
46223;BME280;31943;51.410;7.564;2022-11-20T07:38:37;99826.44;;;3.27;61.23
46223;BME280;31943;51.410;7.564;2022-11-20T07:41:03;99829.75;;;3.23;60.84
46223;BME280;31943;51.410;7.564;2022-11-20T07:43:31;99825.19;;;3.14;61.00
46223;BME280;31943;51.410;7.564;2022-11-20T07:45:58;99833.72;;;3.13;61.06
46223;BME280;31943;51.410;7.564;2022-11-20T07:48:24;99830.34;;;3.14;61.09
46223;BME280;31943;51.410;7.564;2022-11-20T07:50:53;99832.06;;;3.15;61.27
46223;BME280;31943;51.410;7.564;2022-11-20T07:53:19;99832.13;;;3.16;61.06
46223;BME280;31943;51.410;7.564;2022-11-20T07:55:44;99835.56;;;3.17;61.22
46223;BME280;31943;51.410;7.564;2022-11-20T07:58:10;99842.50;;;3.18;61.21
46223;BME280;31943;51.410;7.564;2022-11-20T08:00:36;99842.56;;;3.20;61.28
46223;BME280;31943;51.410;7.564;2022-11-20T08:03:03;99839.19;;;3.22;61.43
46223;BME280;31943;51.410;7.564;2022-11-20T08:05:28;99832.44;;;3.26;61.08
46223;BME280;31943;51.410;7.564;2022-11-20T08:07:57;99829.88;;;3.26;61.15
46223;BME280;31943;51.410;7.564;2022-11-20T08:10:23;99825.56;;;3.26;61.18
46223;BME280;31943;51.410;7.564;2022-11-20T08:12:52;99824.72;;;3.26;60.74
46223;BME280;31943;51.410;7.564;2022-11-20T08:15:18;99828.16;;;3.26;60.99
46223;BME280;31943;51.410;7.564;2022-11-20T08:17:45;99830.84;;;3.29;60.85
46223;BME280;31943;51.410;7.564;2022-11-20T08:20:11;99840.38;;;3.32;60.99
46223;BME280;31943;51.410;7.564;2022-11-20T08:22:37;99835.28;;;3.33;61.09
46223;BME280;31943;51.410;7.564;2022-11-20T08:25:04;99830.25;;;3.38;60.94
46223;BME280;31943;51.410;7.564;2022-11-20T08:27:31;99835.53;;;3.43;60.91
46223;BME280;31943;51.410;7.564;2022-11-20T08:29:57;99831.28;;;3.43;60.81
46223;BME280;31943;51.410;7.564;2022-11-20T08:32:22;99826.22;;;3.46;60.88
46223;BME280;31943;51.410;7.564;2022-11-20T08:34:48;99827.19;;;3.50;61.17
46223;BME280;31943;51.410;7.564;2022-11-20T08:37:14;99823.00;;;3.53;60.99
46223;BME280;31943;51.410;7.564;2022-11-20T08:39:40;99825.72;;;3.58;61.25
46223;BME280;31943;51.410;7.564;2022-11-20T08:42:08;99826.69;;;3.62;61.10
46223;BME280;31943;51.410;7.564;2022-11-20T08:44:34;99823.38;;;3.66;61.21
46223;BME280;31943;51.410;7.564;2022-11-20T08:47:00;99827.84;;;3.71;61.00
46223;BME280;31943;51.410;7.564;2022-11-20T08:49:26;99821.03;;;3.73;61.07
46223;BME280;31943;51.410;7.564;2022-11-20T08:51:52;99816.84;;;3.77;60.88
46223;BME280;31943;51.410;7.564;2022-11-20T08:54:18;99818.63;;;3.80;60.75
46223;BME280;31943;51.410;7.564;2022-11-20T08:56:43;99810.09;;;3.82;60.85
46223;BME280;31943;51.410;7.564;2022-11-20T08:59:12;99807.69;;;3.87;60.59
46223;BME280;31943;51.410;7.564;2022-11-20T09:01:40;99807.81;;;3.91;60.79
46223;BME280;31943;51.410;7.564;2022-11-20T09:04:06;99815.78;;;3.99;60.64
46223;BME280;31943;51.410;7.564;2022-11-20T09:06:32;99809.13;;;4.07;60.65
46223;BME280;31943;51.410;7.564;2022-11-20T09:08:57;99805.94;;;4.16;60.67
46223;BME280;31943;51.410;7.564;2022-11-20T09:11:23;99811.34;;;4.24;60.54
46223;BME280;31943;51.410;7.564;2022-11-20T09:13:52;99807.31;;;4.35;60.26
46223;BME280;31943;51.410;7.564;2022-11-20T09:16:25;99799.88;;;4.46;60.25
46223;BME280;31943;51.410;7.564;2022-11-20T09:18:51;99813.88;;;4.54;59.96
46223;BME280;31943;51.410;7.564;2022-11-20T09:21:16;99815.88;;;4.64;59.92
46223;BME280;31943;51.410;7.564;2022-11-20T09:23:42;99811.88;;;4.75;59.67
46223;BME280;31943;51.410;7.564;2022-11-20T09:26:10;99822.41;;;4.83;59.45
46223;BME280;31943;51.410;7.564;2022-11-20T09:28:36;99812.31;;;4.92;59.48
46223;BME280;31943;51.410;7.564;2022-11-20T09:31:06;99809.94;;;5.02;59.03
46223;BME280;31943;51.410;7.564;2022-11-20T09:33:33;99797.22;;;5.09;59.01
46223;BME280;31943;51.410;7.564;2022-11-20T09:35:59;99799.13;;;5.17;59.09
46223;BME280;31943;51.410;7.564;2022-11-20T09:38:24;99800.13;;;5.22;58.89
46223;BME280;31943;51.410;7.564;2022-11-20T09:40:55;99801.09;;;5.27;58.60
46223;BME280;31943;51.410;7.564;2022-11-20T09:43:30;99799.50;;;5.32;58.73
46223;BME280;31943;51.410;7.564;2022-11-20T09:46:04;99797.72;;;5.31;58.63
46223;BME280;31943;51.410;7.564;2022-11-20T09:48:44;99793.38;;;5.28;58.16
46223;BME280;31943;51.410;7.564;2022-11-20T09:51:20;99793.31;;;5.27;58.17
46223;BME280;31943;51.410;7.564;2022-11-20T09:54:03;99786.63;;;5.35;57.92
46223;BME280;31943;51.410;7.564;2022-11-20T09:56:33;99782.47;;;5.42;57.73
46223;BME280;31943;51.410;7.564;2022-11-20T09:59:02;99779.97;;;5.46;57.76
46223;BME280;31943;51.410;7.564;2022-11-20T10:01:33;99776.72;;;5.53;57.22
46223;BME280;31943;51.410;7.564;2022-11-20T10:04:06;99774.22;;;5.58;57.10
46223;BME280;31943;51.410;7.564;2022-11-20T10:06:41;99776.94;;;5.63;56.90
46223;BME280;31943;51.410;7.564;2022-11-20T10:09:18;99782.09;;;5.63;57.01
46223;BME280;31943;51.410;7.564;2022-11-20T10:11:56;99777.75;;;5.62;57.14
46223;BME280;31943;51.410;7.564;2022-11-20T10:14:31;99769.22;;;5.66;56.77
46223;BME280;31943;51.410;7.564;2022-11-20T10:17:05;99772.66;;;5.66;56.77
46223;BME280;31943;51.410;7.564;2022-11-20T10:19:47;99769.22;;;5.66;56.58
46223;BME280;31943;51.410;7.564;2022-11-20T10:22:29;99758.00;;;5.65;56.70
46223;BME280;31943;51.410;7.564;2022-11-20T10:25:02;99760.56;;;5.65;56.44
46223;BME280;31943;51.410;7.564;2022-11-20T10:27:40;99758.00;;;5.65;56.54
46223;BME280;31943;51.410;7.564;2022-11-20T10:30:09;99757.78;;;5.56;56.41
46223;BME280;31943;51.410;7.564;2022-11-20T10:32:38;99756.03;;;5.55;56.59
46223;BME280;31943;51.410;7.564;2022-11-20T10:35:17;99756.09;;;5.58;56.69
46223;BME280;31943;51.410;7.564;2022-11-20T10:37:48;99757.00;;;5.59;56.68
46223;BME280;31943;51.410;7.564;2022-11-20T10:40:22;99757.84;;;5.59;56.52
46223;BME280;31943;51.410;7.564;2022-11-20T10:42:52;99754.41;;;5.59;56.57
46223;BME280;31943;51.410;7.564;2022-11-20T10:45:28;99756.06;;;5.57;56.75
46223;BME280;31943;51.410;7.564;2022-11-20T10:48:20;99758.63;;;5.55;56.50
46223;BME280;31943;51.410;7.564;2022-11-20T10:51:07;99749.00;;;5.49;56.84
46223;BME280;31943;51.410;7.564;2022-11-20T10:53:54;99743.75;;;5.46;56.68
46223;BME280;31943;51.410;7.564;2022-11-20T10:56:24;99742.97;;;5.50;56.86
46223;BME280;31943;51.410;7.564;2022-11-20T10:59:03;99744.06;;;5.59;56.65
46223;BME280;31943;51.410;7.564;2022-11-20T11:01:38;99743.09;;;5.55;56.45
46223;BME280;31943;51.410;7.564;2022-11-20T11:04:18;99741.28;;;5.51;56.71
46223;BME280;31943;51.410;7.564;2022-11-20T11:06:51;99749.78;;;5.45;56.07
46223;BME280;31943;51.410;7.564;2022-11-20T11:09:32;99746.28;;;5.43;56.42
46223;BME280;31943;51.410;7.564;2022-11-20T11:11:59;99738.41;;;5.37;56.69
46223;BME280;31943;51.410;7.564;2022-11-20T11:14:25;99741.53;;;5.24;56.92
46223;BME280;31943;51.410;7.564;2022-11-20T11:16:53;99733.72;;;5.22;57.27
46223;BME280;31943;51.410;7.564;2022-11-20T11:19:19;99730.41;;;5.28;57.21
46223;BME280;31943;51.410;7.564;2022-11-20T11:21:46;99726.97;;;5.27;56.74
46223;BME280;31943;51.410;7.564;2022-11-20T11:24:21;99721.84;;;5.30;56.67
46223;BME280;31943;51.410;7.564;2022-11-20T11:26:55;99709.63;;;5.25;56.74
46223;BME280;31943;51.410;7.564;2022-11-20T11:29:23;99712.19;;;5.23;56.72
46223;BME280;31943;51.410;7.564;2022-11-20T11:32:03;99711.31;;;5.23;56.81
46223;BME280;31943;51.410;7.564;2022-11-20T11:34:29;99704.41;;;5.23;56.41
46223;BME280;31943;51.410;7.564;2022-11-20T11:37:00;99700.91;;;5.20;56.65
46223;BME280;31943;51.410;7.564;2022-11-20T11:39:30;99693.97;;;5.19;56.74
46223;BME280;31943;51.410;7.564;2022-11-20T11:41:58;99692.38;;;5.24;56.86
46223;BME280;31943;51.410;7.564;2022-11-20T11:44:27;99688.16;;;5.29;56.68
46223;BME280;31943;51.410;7.564;2022-11-20T11:46:56;99681.31;;;5.29;56.49
46223;BME280;31943;51.410;7.564;2022-11-20T11:49:25;99685.63;;;5.30;56.34
46223;BME280;31943;51.410;7.564;2022-11-20T11:52:02;99685.69;;;5.33;56.15
46223;BME280;31943;51.410;7.564;2022-11-20T11:54:35;99672.72;;;5.32;56.50
46223;BME280;31943;51.410;7.564;2022-11-20T11:57:04;99666.00;;;5.40;56.75
46223;BME280;31943;51.410;7.564;2022-11-20T11:59:44;99671.44;;;5.52;56.95
46223;BME280;31943;51.410;7.564;2022-11-20T12:02:25;99669.06;;;5.63;56.84
46223;BME280;31943;51.410;7.564;2022-11-20T12:04:57;99664.97;;;5.73;56.84
46223;BME280;31943;51.410;7.564;2022-11-20T12:07:38;99656.56;;;5.85;56.93
46223;BME280;31943;51.410;7.564;2022-11-20T12:10:15;99647.25;;;5.94;56.87
46223;BME280;31943;51.410;7.564;2022-11-20T12:12:44;99649.13;;;6.02;56.54
46223;BME280;31943;51.410;7.564;2022-11-20T12:15:22;99641.44;;;6.05;56.73
46223;BME280;31943;51.410;7.564;2022-11-20T12:17:50;99633.69;;;6.06;56.63
46223;BME280;31943;51.410;7.564;2022-11-20T12:20:17;99635.59;;;6.17;56.53
46223;BME280;31943;51.410;7.564;2022-11-20T12:22:49;99631.56;;;6.32;56.41
46223;BME280;31943;51.410;7.564;2022-11-20T12:25:24;99632.66;;;6.45;56.11
46223;BME280;31943;51.410;7.564;2022-11-20T12:30:40;99613.59;;;6.45;55.79
46223;BME280;31943;51.410;7.564;2022-11-20T12:33:36;99609.22;;;6.41;55.83
46223;BME280;31943;51.410;7.564;2022-11-20T12:36:17;99598.88;;;6.42;55.96
46223;BME280;31943;51.410;7.564;2022-11-20T12:38:58;99604.13;;;6.45;55.95
46223;BME280;31943;51.410;7.564;2022-11-20T12:41:40;99603.25;;;6.45;55.50
46223;BME280;31943;51.410;7.564;2022-11-20T12:44:18;99612.78;;;6.46;55.83
46223;BME280;31943;51.410;7.564;2022-11-20T12:46:53;99605.88;;;6.46;55.29
46223;BME280;31943;51.410;7.564;2022-11-20T12:49:32;99604.03;;;6.41;55.20
46223;BME280;31943;51.410;7.564;2022-11-20T12:52:23;99598.84;;;6.41;55.51
46223;BME280;31943;51.410;7.564;2022-11-20T12:55:03;99600.59;;;6.40;55.53
46223;BME280;31943;51.410;7.564;2022-11-20T12:57:40;99599.66;;;6.35;55.81
46223;BME280;31943;51.410;7.564;2022-11-20T13:00:14;99590.09;;;6.32;55.49
46223;BME280;31943;51.410;7.564;2022-11-20T13:05:37;99584.94;;;6.34;55.64
46223;BME280;31943;51.410;7.564;2022-11-20T13:08:11;99581.47;;;6.32;55.77
46223;BME280;31943;51.410;7.564;2022-11-20T13:10:46;99580.59;;;6.31;56.28
46223;BME280;31943;51.410;7.564;2022-11-20T13:13:21;99576.25;;;6.30;56.46
46223;BME280;31943;51.410;7.564;2022-11-20T13:15:53;99583.13;;;6.28;56.56
46223;BME280;31943;51.410;7.564;2022-11-20T13:18:23;99566.69;;;6.26;56.56
46223;BME280;31943;51.410;7.564;2022-11-20T13:20:48;99554.59;;;6.25;56.91
46223;BME280;31943;51.410;7.564;2022-11-20T13:23:23;99550.25;;;6.24;57.12